createdAt,value
2018-09-27T00:01:11.863Z,9.47
2018-09-27T00:03:40.434Z,9.97
2018-09-27T00:06:08.994Z,9.93
2018-09-27T00:08:37.537Z,9.50
2018-09-27T00:11:06.062Z,10.13
2018-09-27T00:13:34.593Z,9.43
2018-09-27T00:16:03.115Z,10.20
2018-09-27T00:18:31.630Z,11.93
2018-09-27T00:21:00.153Z,9.70
2018-09-27T00:23:28.708Z,11.07
2018-09-27T00:25:57.290Z,11.63
2018-09-27T00:28:26.377Z,10.63
2018-09-27T00:30:54.918Z,11.27
2018-09-27T00:33:23.894Z,10.93
2018-09-27T00:35:52.417Z,10.93
2018-09-27T00:38:20.962Z,11.97
2018-09-27T00:40:49.545Z,11.70
2018-09-27T00:43:18.060Z,11.60
2018-09-27T00:45:46.673Z,11.83
2018-09-27T00:48:17.439Z,12.00
2018-09-27T00:50:47.481Z,12.80
2018-09-27T00:53:16.584Z,13.53
2018-09-27T00:55:45.197Z,11.60
2018-09-27T00:58:13.712Z,12.13
2018-09-27T01:00:42.233Z,12.53
2018-09-27T01:03:11.001Z,11.60
2018-09-27T01:05:40.152Z,13.37
2018-09-27T01:08:08.669Z,12.80
2018-09-27T01:10:37.264Z,14.03
2018-09-27T01:13:05.843Z,13.43
2018-09-27T01:15:34.360Z,12.90
2018-09-27T01:18:03.202Z,14.17
2018-09-27T01:20:31.773Z,15.43
2018-09-27T01:23:00.322Z,13.87
2018-09-27T01:25:29.486Z,14.17
2018-09-27T01:27:57.970Z,13.33
2018-09-27T01:30:26.474Z,14.40
2018-09-27T01:32:55.000Z,14.67
2018-09-27T01:35:23.509Z,15.37
2018-09-27T01:37:52.125Z,15.77
2018-09-27T01:40:20.622Z,16.10
2018-09-27T01:42:49.845Z,15.53
2018-09-27T01:45:18.341Z,15.70
2018-09-27T01:47:46.949Z,15.63
2018-09-27T01:50:15.782Z,14.43
2018-09-27T01:52:44.297Z,15.63
2018-09-27T01:55:12.774Z,18.83
2018-09-27T01:57:41.261Z,16.30
2018-09-27T02:00:09.815Z,16.47
2018-09-27T02:02:38.333Z,15.80
2018-09-27T02:05:06.890Z,15.53
2018-09-27T02:07:35.387Z,16.20
2018-09-27T02:10:03.949Z,16.43
2018-09-27T02:12:32.741Z,17.27
2018-09-27T02:15:01.299Z,16.17
2018-09-27T02:17:29.773Z,16.90
2018-09-27T02:19:58.315Z,16.70
2018-09-27T02:22:26.881Z,16.43
2018-09-27T02:24:55.399Z,20.23
2018-09-27T02:27:23.999Z,16.53
2018-09-27T02:29:52.549Z,16.70
2018-09-27T02:32:21.077Z,18.13
2018-09-27T02:34:49.658Z,17.33
2018-09-27T02:37:18.210Z,17.07
2018-09-27T02:39:47.093Z,17.10
2018-09-27T02:42:15.591Z,17.73
2018-09-27T02:44:44.883Z,18.20
2018-09-27T02:47:13.516Z,16.40
2018-09-27T02:49:42.067Z,18.00
2018-09-27T02:52:10.897Z,17.20
2018-09-27T02:54:39.390Z,17.20
2018-09-27T02:57:07.899Z,19.03
2018-09-27T02:59:36.406Z,16.90
2018-09-27T03:02:05.330Z,18.37
2018-09-27T03:04:33.815Z,17.47
2018-09-27T03:07:02.331Z,17.40
2018-09-27T03:09:30.936Z,16.30
2018-09-27T03:11:59.470Z,17.87
2018-09-27T03:14:28.024Z,16.63
2018-09-27T03:16:56.560Z,17.60
2018-09-27T03:19:25.223Z,19.20
2018-09-27T03:21:53.723Z,17.07
2018-09-27T03:24:22.260Z,17.50
2018-09-27T03:26:50.806Z,17.20
2018-09-27T03:29:19.366Z,17.80
2018-09-27T03:31:47.915Z,16.60
2018-09-27T03:34:17.131Z,18.43
2018-09-27T03:36:45.610Z,18.60
2018-09-27T03:39:14.195Z,17.83
2018-09-27T03:41:42.763Z,18.53
2018-09-27T03:44:11.304Z,18.87
2018-09-27T03:46:39.984Z,20.10
2018-09-27T03:49:08.596Z,18.90
2018-09-27T03:51:37.236Z,18.50
2018-09-27T03:54:05.854Z,21.20
2018-09-27T03:56:34.453Z,18.50
2018-09-27T03:59:03.779Z,19.70
2018-09-27T04:01:32.512Z,19.20
2018-09-27T04:04:01.070Z,19.57
2018-09-27T04:06:29.590Z,19.00
2018-09-27T04:08:58.202Z,18.70
2018-09-27T04:11:26.747Z,18.67
2018-09-27T04:13:55.222Z,20.37
2018-09-27T04:16:23.734Z,19.17
2018-09-27T04:18:52.575Z,18.77
2018-09-27T04:21:21.124Z,19.03
2018-09-27T04:23:49.908Z,18.07
2018-09-27T04:26:18.447Z,19.90
2018-09-27T04:28:47.011Z,19.40
2018-09-27T04:31:15.608Z,18.27
2018-09-27T04:33:44.415Z,18.93
2018-09-27T04:36:13.553Z,18.20
2018-09-27T04:38:42.147Z,17.00
2018-09-27T04:41:10.730Z,18.80
2018-09-27T04:43:39.243Z,18.43
2018-09-27T04:46:07.890Z,16.57
2018-09-27T04:48:36.447Z,17.50
2018-09-27T04:51:05.153Z,18.33
2018-09-27T04:53:35.600Z,17.40
2018-09-27T04:56:04.130Z,17.77
2018-09-27T04:58:32.638Z,18.53
2018-09-27T05:01:01.174Z,17.50
2018-09-27T05:03:29.691Z,17.03
2018-09-27T05:05:58.279Z,18.57
2018-09-27T05:08:26.798Z,18.57
2018-09-27T05:10:55.342Z,18.07
2018-09-27T05:13:24.039Z,18.23
2018-09-27T05:15:52.599Z,18.43
2018-09-27T05:18:21.109Z,17.10
2018-09-27T05:20:55.930Z,16.53
2018-09-27T05:23:24.462Z,18.30
2018-09-27T05:25:53.050Z,17.80
2018-09-27T05:28:21.590Z,16.77
2018-09-27T05:30:50.146Z,17.40
2018-09-27T05:33:18.686Z,16.10
2018-09-27T05:35:47.233Z,20.13
2018-09-27T05:38:15.837Z,18.90
2018-09-27T05:40:45.360Z,17.13
2018-09-27T05:43:14.192Z,17.90
2018-09-27T05:45:42.785Z,17.00
2018-09-27T05:48:11.341Z,16.60
2018-09-27T05:50:39.902Z,17.73
2018-09-27T05:53:09.590Z,16.57
2018-09-27T05:55:38.532Z,16.90
2018-09-27T05:58:07.048Z,17.17
2018-09-27T06:00:35.581Z,18.57
2018-09-27T06:03:04.172Z,17.57
2018-09-27T06:05:32.759Z,16.97
2018-09-27T06:08:01.256Z,16.13
2018-09-27T06:10:29.767Z,18.13
2018-09-27T06:12:58.337Z,16.40
2018-09-27T06:15:26.883Z,16.50
2018-09-27T06:17:55.427Z,16.37
2018-09-27T06:20:23.943Z,16.97
2018-09-27T06:22:52.732Z,15.63
2018-09-27T06:25:21.259Z,15.77
2018-09-27T06:27:49.809Z,16.20
2018-09-27T06:30:18.357Z,15.77
2018-09-27T06:32:46.844Z,15.20
2018-09-27T06:35:15.356Z,15.37
2018-09-27T06:37:43.919Z,17.63
2018-09-27T06:40:12.395Z,15.57
2018-09-27T06:42:40.953Z,15.73
2018-09-27T06:45:09.865Z,15.20
2018-09-27T06:47:38.388Z,16.87
2018-09-27T06:50:07.264Z,15.13
2018-09-27T06:52:35.818Z,16.00
2018-09-27T06:55:04.461Z,16.67
2018-09-27T06:57:32.956Z,15.23
2018-09-27T07:00:01.443Z,14.83
2018-09-27T07:02:29.990Z,16.53
2018-09-27T07:04:58.540Z,15.70
2018-09-27T07:07:27.211Z,15.50
2018-09-27T07:09:55.783Z,17.07
2018-09-27T07:12:24.491Z,14.87
2018-09-27T07:14:52.878Z,15.63
2018-09-27T07:17:27.903Z,17.10
2018-09-27T07:19:56.446Z,15.70
2018-09-27T07:22:24.922Z,14.90
2018-09-27T07:24:53.424Z,13.60
2018-09-27T07:27:21.941Z,14.30
2018-09-27T07:29:50.455Z,14.40
2018-09-27T07:32:18.966Z,13.97
2018-09-27T07:34:47.544Z,14.10
2018-09-27T07:37:16.078Z,14.63
2018-09-27T07:39:44.686Z,14.20
2018-09-27T07:42:13.215Z,15.27
2018-09-27T07:44:42.082Z,13.47
2018-09-27T07:47:10.563Z,13.40
2018-09-27T07:49:39.087Z,13.87
2018-09-27T07:52:07.659Z,14.30
2018-09-27T07:54:36.224Z,14.33
2018-09-27T07:57:04.698Z,15.03
2018-09-27T07:59:33.236Z,13.30
2018-09-27T08:02:01.804Z,14.37
2018-09-27T08:04:30.433Z,14.27
2018-09-27T08:06:58.968Z,13.87
2018-09-27T08:09:27.530Z,15.20
2018-09-27T08:11:56.090Z,13.00
2018-09-27T08:14:24.609Z,12.90
2018-09-27T08:16:53.117Z,13.13
2018-09-27T08:19:21.712Z,13.43
2018-09-27T08:21:50.335Z,13.37
2018-09-27T08:24:18.851Z,13.40
2018-09-27T08:26:47.403Z,13.47
2018-09-27T08:29:15.944Z,12.80
2018-09-27T08:31:44.614Z,12.07
2018-09-27T08:34:13.161Z,11.60
2018-09-27T08:36:41.686Z,11.97
2018-09-27T08:39:11.799Z,12.13
2018-09-27T08:41:40.346Z,12.30
2018-09-27T08:44:09.982Z,11.63
2018-09-27T08:46:38.524Z,11.97
2018-09-27T08:49:07.167Z,12.17
2018-09-27T08:51:35.789Z,12.70
2018-09-27T08:54:04.327Z,11.80
2018-09-27T08:56:33.145Z,12.00
2018-09-27T08:59:01.785Z,12.17
2018-09-27T09:01:31.369Z,12.17
2018-09-27T09:03:59.938Z,12.47
2018-09-27T09:06:28.512Z,12.13
2018-09-27T09:08:57.031Z,12.47
2018-09-27T09:11:26.119Z,13.20
2018-09-27T09:13:54.651Z,12.77
2018-09-27T09:16:23.226Z,12.97
2018-09-27T09:18:51.748Z,12.57
2018-09-27T09:21:20.291Z,12.20
2018-09-27T09:23:49.083Z,13.40
2018-09-27T09:26:17.620Z,13.00
2018-09-27T09:28:46.170Z,12.50
2018-09-27T09:31:14.764Z,10.20
2018-09-27T09:33:43.395Z,11.10
2018-09-27T09:36:11.862Z,11.43
2018-09-27T09:38:40.362Z,10.37
2018-09-27T09:41:08.943Z,10.33
2018-09-27T09:43:37.479Z,11.90
2018-09-27T09:46:06.238Z,10.90
2018-09-27T09:48:34.831Z,11.00
2018-09-27T09:51:03.383Z,12.57
2018-09-27T09:53:31.940Z,10.43
2018-09-27T09:56:00.467Z,10.10
2018-09-27T09:58:29.014Z,9.07
2018-09-27T10:00:57.634Z,9.67
2018-09-27T10:03:26.162Z,9.93
2018-09-27T10:05:54.692Z,10.50
2018-09-27T10:08:24.122Z,9.57
2018-09-27T10:10:52.718Z,10.67
2018-09-27T10:13:21.247Z,8.43
2018-09-27T10:15:49.803Z,7.77
2018-09-27T10:18:19.191Z,7.60
2018-09-27T10:20:47.737Z,6.03
2018-09-27T10:23:16.277Z,6.50
2018-09-27T10:25:44.801Z,6.70
2018-09-27T10:28:13.334Z,6.10
2018-09-27T10:30:41.982Z,6.17
2018-09-27T10:33:10.555Z,6.60
2018-09-27T10:35:39.081Z,6.83
2018-09-27T10:38:07.658Z,7.07
2018-09-27T10:40:36.458Z,5.53
2018-09-27T10:43:05.012Z,5.13
2018-09-27T10:45:33.534Z,6.07
2018-09-27T10:48:02.229Z,5.73
2018-09-27T10:50:30.743Z,5.23
2018-09-27T10:52:59.358Z,5.50
2018-09-27T10:55:27.948Z,5.10
2018-09-27T10:57:56.474Z,5.53
2018-09-27T11:00:25.578Z,5.10
2018-09-27T11:02:54.261Z,5.53
2018-09-27T11:05:22.860Z,4.40
2018-09-27T11:07:51.456Z,5.13
2018-09-27T11:10:19.971Z,4.47
2018-09-27T11:12:48.479Z,4.47
2018-09-27T11:15:17.048Z,4.60
2018-09-27T11:17:45.569Z,4.87
2018-09-27T11:20:14.061Z,4.63
2018-09-27T11:22:42.650Z,4.80
2018-09-27T11:25:11.142Z,4.20
2018-09-27T11:27:39.741Z,4.77
2018-09-27T11:30:13.399Z,4.40
2018-09-27T11:32:44.386Z,5.17
2018-09-27T11:35:13.120Z,4.73
2018-09-27T11:37:41.663Z,5.40
2018-09-27T11:40:11.128Z,5.63
2018-09-27T11:42:40.004Z,5.23
2018-09-27T11:45:09.194Z,4.90
2018-09-27T11:47:37.707Z,6.33
2018-09-27T11:50:06.457Z,5.53
2018-09-27T11:52:34.938Z,6.20
2018-09-27T11:55:03.496Z,6.43
2018-09-27T11:57:32.030Z,6.40
2018-09-27T12:00:00.592Z,6.23
2018-09-27T12:02:29.128Z,5.43
2018-09-27T12:04:57.694Z,7.07
2018-09-27T12:07:26.237Z,7.33
2018-09-27T12:09:54.786Z,5.83
2018-09-27T12:12:24.452Z,5.37
2018-09-27T12:14:53.699Z,5.90
2018-09-27T12:17:22.279Z,5.43
2018-09-27T12:19:50.805Z,6.63
2018-09-27T12:22:19.332Z,6.13
2018-09-27T12:24:47.895Z,5.33
2018-09-27T12:27:16.507Z,6.70
2018-09-27T12:29:45.030Z,6.73
2018-09-27T12:32:13.626Z,6.70
2018-09-27T12:34:42.130Z,6.53
2018-09-27T12:37:10.640Z,6.73
2018-09-27T12:39:39.222Z,7.57
2018-09-27T12:42:07.924Z,7.70
2018-09-27T12:44:36.316Z,7.37
2018-09-27T12:47:04.835Z,8.03
2018-09-27T12:49:33.625Z,7.17
2018-09-27T12:52:09.041Z,7.63
2018-09-27T12:54:37.312Z,7.20
2018-09-27T12:57:06.033Z,8.47
2018-09-27T12:59:34.595Z,7.60
2018-09-27T13:02:03.379Z,7.60
2018-09-27T13:04:31.725Z,7.90
2018-09-27T13:07:00.308Z,8.57
2018-09-27T13:09:28.970Z,8.07
2018-09-27T13:11:57.412Z,8.33
2018-09-27T13:14:25.947Z,9.97
2018-09-27T13:16:54.503Z,7.83
2018-09-27T13:19:23.038Z,9.07
2018-09-27T13:21:51.549Z,8.80
2018-09-27T13:24:20.070Z,8.90
2018-09-27T13:26:48.624Z,8.37
2018-09-27T13:29:17.411Z,8.70
2018-09-27T13:31:45.921Z,8.33
2018-09-27T13:34:14.463Z,9.03
2018-09-27T13:36:42.999Z,9.97
2018-09-27T13:39:11.728Z,11.50
2018-09-27T13:41:40.511Z,10.00
2018-09-27T13:44:09.231Z,8.93
2018-09-27T13:46:37.893Z,10.17
2018-09-27T13:49:06.552Z,9.90
2018-09-27T13:51:35.044Z,8.50
2018-09-27T13:54:03.567Z,9.10
2018-09-27T13:56:32.127Z,9.23
2018-09-27T13:59:00.694Z,10.40
2018-09-27T14:01:29.236Z,9.10
2018-09-27T14:03:57.828Z,10.80
2018-09-27T14:06:26.340Z,9.67
2018-09-27T14:08:54.895Z,10.90
2018-09-27T14:11:23.450Z,11.20
2018-09-27T14:13:52.024Z,10.43
2018-09-27T14:16:20.591Z,9.13
2018-09-27T14:18:49.102Z,10.10
2018-09-27T14:21:17.622Z,9.53
2018-09-27T14:23:46.241Z,11.47
2018-09-27T14:26:14.764Z,9.30
2018-09-27T14:28:43.295Z,8.87
2018-09-27T14:31:11.839Z,8.77
2018-09-27T14:33:40.484Z,8.83
2018-09-27T14:36:09.028Z,9.13
2018-09-27T14:38:37.575Z,10.43
2018-09-27T14:41:06.172Z,10.87
2018-09-27T14:43:35.329Z,10.17
2018-09-27T14:46:03.858Z,9.17
2018-09-27T14:48:32.348Z,9.17
2018-09-27T14:51:00.869Z,11.13
2018-09-27T14:53:29.423Z,9.80
2018-09-27T14:55:58.563Z,9.63
2018-09-27T14:58:27.179Z,9.30
2018-09-27T15:00:55.701Z,9.70
2018-09-27T15:03:24.222Z,10.83
2018-09-27T15:05:52.835Z,10.00
2018-09-27T15:08:21.368Z,11.67
2018-09-27T15:10:49.981Z,11.40
2018-09-27T15:13:18.474Z,11.67
2018-09-27T15:15:47.169Z,12.10
2018-09-27T15:18:15.702Z,13.40
2018-09-27T15:20:44.480Z,12.57
2018-09-27T15:23:13.027Z,14.43
2018-09-27T15:25:41.566Z,12.97
2018-09-27T15:28:10.130Z,13.67
2018-09-27T15:30:38.699Z,13.20
2018-09-27T15:33:07.324Z,12.40
2018-09-27T15:35:35.881Z,12.60
2018-09-27T15:38:04.434Z,14.60
2018-09-27T15:40:33.234Z,12.73
2018-09-27T15:43:01.750Z,14.10
2018-09-27T15:45:30.287Z,14.53
2018-09-27T15:47:58.869Z,12.33
2018-09-27T15:50:27.605Z,14.30
2018-09-27T15:52:56.180Z,14.80
2018-09-27T15:55:24.763Z,14.87
2018-09-27T15:57:53.406Z,13.97
2018-09-27T16:00:22.056Z,13.80
2018-09-27T16:02:50.607Z,13.70
2018-09-27T16:05:19.248Z,14.30
2018-09-27T16:07:47.911Z,13.33
2018-09-27T16:10:16.595Z,14.10
2018-09-27T16:12:45.074Z,13.53
2018-09-27T16:15:13.612Z,14.17
2018-09-27T16:17:42.202Z,13.60
2018-09-27T16:20:10.730Z,13.80
2018-09-27T16:22:39.330Z,12.57
2018-09-27T16:25:07.976Z,13.50
2018-09-27T16:27:36.484Z,11.80
2018-09-27T16:30:05.779Z,13.03
2018-09-27T16:32:34.310Z,13.00
2018-09-27T16:35:02.889Z,12.80
2018-09-27T16:37:31.419Z,13.53
2018-09-27T16:40:00.028Z,14.30
2018-09-27T16:42:28.576Z,11.90
2018-09-27T16:44:57.178Z,11.53
2018-09-27T16:47:25.725Z,10.73
2018-09-27T16:49:54.291Z,12.10
2018-09-27T16:52:22.843Z,10.50
2018-09-27T16:54:51.391Z,11.50
2018-09-27T16:57:19.982Z,10.60
2018-09-27T16:59:48.674Z,10.30
2018-09-27T17:02:17.676Z,10.93
2018-09-27T17:04:46.186Z,10.13
2018-09-27T17:07:14.701Z,11.20
2018-09-27T17:09:43.241Z,11.10
2018-09-27T17:12:11.823Z,11.57
2018-09-27T17:14:40.331Z,9.90
2018-09-27T17:17:14.678Z,11.50
2018-09-27T17:19:43.227Z,10.00
2018-09-27T17:22:11.774Z,9.50
2018-09-27T17:24:40.373Z,10.70
2018-09-27T17:27:08.909Z,10.23
2018-09-27T17:29:37.479Z,12.13
2018-09-27T17:32:05.975Z,10.33
2018-09-27T17:34:34.642Z,10.50
2018-09-27T17:37:03.213Z,9.60
2018-09-27T17:39:31.700Z,9.13
2018-09-27T17:42:00.230Z,9.23
2018-09-27T17:44:28.766Z,7.87
2018-09-27T17:46:57.367Z,9.50
2018-09-27T17:49:26.160Z,8.27
2018-09-27T17:51:54.667Z,8.30
2018-09-27T17:54:23.206Z,7.87
2018-09-27T17:56:51.874Z,8.63
2018-09-27T17:59:20.429Z,8.20
2018-09-27T18:01:48.942Z,9.60
2018-09-27T18:04:17.508Z,9.60
2018-09-27T18:06:46.434Z,9.30
2018-09-27T18:09:14.943Z,9.50
2018-09-27T18:11:44.415Z,9.77
2018-09-27T18:14:12.938Z,9.77
2018-09-27T18:16:41.572Z,11.10
2018-09-27T18:19:11.218Z,10.33
2018-09-27T18:21:40.390Z,10.30
2018-09-27T18:24:09.038Z,10.37
2018-09-27T18:26:37.627Z,10.93
2018-09-27T18:29:06.406Z,9.87
2018-09-27T18:31:35.121Z,10.90
2018-09-27T18:34:03.895Z,12.50
2018-09-27T18:36:32.469Z,11.20
2018-09-27T18:39:01.369Z,11.70
2018-09-27T18:41:30.006Z,11.00
2018-09-27T18:43:59.551Z,12.77
2018-09-27T18:46:28.209Z,12.53
2018-09-27T18:48:56.723Z,12.73
2018-09-27T18:51:26.124Z,13.30
2018-09-27T18:53:54.691Z,12.57
2018-09-27T18:56:23.672Z,12.17
2018-09-27T18:58:52.490Z,12.60
2018-09-27T19:01:21.004Z,11.60
2018-09-27T19:03:49.591Z,12.90
2018-09-27T19:06:18.248Z,13.33
2018-09-27T19:08:46.971Z,13.37
2018-09-27T19:11:15.569Z,12.20
2018-09-27T19:13:44.059Z,13.73
2018-09-27T19:16:13.344Z,16.10
2018-09-27T19:18:42.398Z,14.10
2018-09-27T19:21:10.981Z,13.93
2018-09-27T19:23:39.571Z,13.20
2018-09-27T19:26:08.174Z,12.13
2018-09-27T19:28:36.768Z,12.90
2018-09-27T19:31:05.358Z,12.37
2018-09-27T19:33:33.916Z,12.43
2018-09-27T19:36:02.488Z,12.57
2018-09-27T19:38:31.199Z,15.47
2018-09-27T19:40:59.721Z,13.50
2018-09-27T19:43:28.246Z,13.70
2018-09-27T19:45:56.795Z,14.07
2018-09-27T19:48:25.457Z,13.20
2018-09-27T19:50:54.007Z,12.23
2018-09-27T19:53:22.563Z,11.47
2018-09-27T19:55:51.078Z,12.57
2018-09-27T19:58:20.600Z,12.50
2018-09-27T20:00:49.323Z,13.17
2018-09-27T20:03:17.881Z,12.43
2018-09-27T20:05:46.403Z,12.83
2018-09-27T20:08:14.923Z,11.50
2018-09-27T20:10:43.703Z,12.80
2018-09-27T20:13:12.194Z,12.20
2018-09-27T20:15:41.239Z,10.57
2018-09-27T20:18:16.518Z,15.00
2018-09-27T20:20:44.994Z,12.57
2018-09-27T20:23:13.515Z,11.93
2018-09-27T20:25:42.081Z,12.17
2018-09-27T20:28:10.724Z,10.90
2018-09-27T20:30:39.217Z,11.07
2018-09-27T20:33:07.979Z,12.20
2018-09-27T20:35:36.774Z,13.50
2018-09-27T20:38:05.305Z,11.63
2018-09-27T20:40:34.895Z,12.90
2018-09-27T20:43:04.068Z,13.27
2018-09-27T20:45:32.589Z,11.83
2018-09-27T20:48:02.404Z,13.07
2018-09-27T20:50:30.913Z,15.10
2018-09-27T20:52:59.418Z,12.63
2018-09-27T20:55:27.947Z,12.70
2018-09-27T20:57:56.478Z,14.43
2018-09-27T21:00:25.615Z,12.20
2018-09-27T21:02:54.128Z,12.70
2018-09-27T21:05:22.695Z,13.00
2018-09-27T21:07:51.251Z,13.43
2018-09-27T21:10:19.987Z,13.87
2018-09-27T21:12:48.594Z,13.67
2018-09-27T21:15:17.862Z,12.63
2018-09-27T21:17:46.946Z,13.10
2018-09-27T21:20:15.450Z,11.80
2018-09-27T21:22:44.291Z,13.30
2018-09-27T21:25:12.832Z,13.67
2018-09-27T21:27:41.306Z,12.90
2018-09-27T21:30:09.840Z,14.97
2018-09-27T21:32:39.107Z,15.50
2018-09-27T21:35:07.667Z,15.77
2018-09-27T21:37:36.182Z,14.73
2018-09-27T21:40:05.145Z,15.57
2018-09-27T21:42:33.741Z,17.87
2018-09-27T21:45:02.585Z,18.50
2018-09-27T21:47:31.839Z,19.70
2018-09-27T21:50:00.511Z,18.60
2018-09-27T21:52:28.994Z,17.33
2018-09-27T21:54:57.527Z,19.70
2018-09-27T21:57:26.599Z,17.00
2018-09-27T21:59:55.266Z,16.40
2018-09-27T22:02:23.807Z,16.87
2018-09-27T22:04:52.306Z,17.57
2018-09-27T22:07:21.193Z,16.13
2018-09-27T22:09:49.690Z,17.67
2018-09-27T22:12:18.290Z,17.80
2018-09-27T22:14:46.818Z,17.53
2018-09-27T22:17:15.325Z,16.33
2018-09-27T22:19:43.863Z,15.80
2018-09-27T22:22:12.675Z,15.77
2018-09-27T22:24:41.171Z,20.20
2018-09-27T22:27:09.786Z,19.10
2018-09-27T22:29:38.942Z,21.27
2018-09-27T22:32:07.493Z,19.47
2018-09-27T22:34:36.933Z,19.70
2018-09-27T22:37:05.568Z,19.57
2018-09-27T22:39:34.122Z,20.20
2018-09-27T22:42:03.264Z,20.10
2018-09-27T22:44:31.790Z,20.20
2018-09-27T22:47:00.311Z,21.30
2018-09-27T22:49:28.839Z,19.47
2018-09-27T22:52:03.897Z,21.20
2018-09-27T22:54:32.423Z,19.53
2018-09-27T22:57:00.961Z,21.80
2018-09-27T22:59:29.502Z,17.10
2018-09-27T23:01:58.034Z,18.63
2018-09-27T23:04:26.916Z,20.40
2018-09-27T23:06:55.415Z,21.90
2018-09-27T23:09:23.919Z,21.07
2018-09-27T23:11:52.446Z,23.30
2018-09-27T23:14:20.967Z,26.60
2018-09-27T23:16:49.476Z,25.90
2018-09-27T23:19:17.975Z,26.97
2018-09-27T23:21:46.898Z,29.70
2018-09-27T23:24:15.413Z,30.17
2018-09-27T23:26:43.910Z,27.63
2018-09-27T23:29:12.511Z,29.03
2018-09-27T23:31:41.050Z,31.13
2018-09-27T23:34:09.568Z,31.50
2018-09-27T23:36:38.078Z,29.40
2018-09-27T23:39:08.025Z,30.70
2018-09-27T23:41:36.650Z,28.53
2018-09-27T23:44:05.763Z,32.63
2018-09-27T23:46:34.298Z,31.83
2018-09-27T23:49:03.174Z,32.17
2018-09-27T23:51:31.723Z,32.00
2018-09-27T23:54:00.243Z,32.60
2018-09-27T23:56:30.144Z,31.23
2018-09-27T23:58:58.688Z,31.73
